createdAt,value
2018-07-28T00:00:05.030Z,87.63
2018-07-28T00:01:13.893Z,87.73
2018-07-28T00:02:23.032Z,88.02
2018-07-28T00:03:32.180Z,87.92
2018-07-28T00:04:41.041Z,88.6
2018-07-28T00:05:50.180Z,88.65
2018-07-28T00:06:59.324Z,87.1
2018-07-28T00:08:08.194Z,88.31
2018-07-28T00:09:17.610Z,88.6
2018-07-28T00:10:26.479Z,88.95
2018-07-28T00:11:35.351Z,89.23
2018-07-28T00:12:44.215Z,89.72
2018-07-28T00:13:53.081Z,88.95
2018-07-28T00:15:02.222Z,89.23
2018-07-28T00:16:11.650Z,88.17
2018-07-28T00:17:20.522Z,88.85
2018-07-28T00:18:29.383Z,88.37
2018-07-28T00:19:38.249Z,88.75
2018-07-28T00:20:47.542Z,89.53
2018-07-28T00:21:56.409Z,89.04
2018-07-28T00:23:05.551Z,89.72
2018-07-28T00:24:14.416Z,90.01
2018-07-28T00:25:23.281Z,89.09
2018-07-28T00:26:32.300Z,88.75
2018-07-28T00:27:41.161Z,89.43
2018-07-28T00:28:50.024Z,89.14
2018-07-28T00:29:58.888Z,89.43
2018-07-28T00:31:07.756Z,89.43
2018-07-28T00:32:16.875Z,89.14
2018-07-28T00:33:26.021Z,89.72
2018-07-28T00:34:34.894Z,90.01
2018-07-28T00:35:44.349Z,90.11
2018-07-28T00:36:53.214Z,90.11
2018-07-28T00:38:02.079Z,90.16
2018-07-28T00:39:10.946Z,89.87
2018-07-28T00:40:19.812Z,89.58
2018-07-28T00:41:28.675Z,89.68
2018-07-28T00:42:37.541Z,89.48
2018-07-28T00:43:46.508Z,90.06
2018-07-28T00:44:55.376Z,89.77
2018-07-28T00:46:04.240Z,90.16
2018-07-28T00:47:13.382Z,90.06
2018-07-28T00:48:22.247Z,89.87
2018-07-28T00:49:31.113Z,90.74
2018-07-28T00:50:40.257Z,90.45
2018-07-28T00:51:49.126Z,89.97
2018-07-28T00:52:58.272Z,89.58
2018-07-28T00:54:07.139Z,90.36
2018-07-28T00:55:16.406Z,90.26
2018-07-28T00:56:25.270Z,90.16
2018-07-28T00:57:34.136Z,90.26
2018-07-28T00:58:42.999Z,90.55
2018-07-28T00:59:51.863Z,89.97
2018-07-28T01:01:00.878Z,90.45
2018-07-28T01:02:09.744Z,91.32
2018-07-28T01:03:18.610Z,90.55
2018-07-28T01:04:27.476Z,90.45
2018-07-28T01:05:36.618Z,90.74
2018-07-28T01:06:45.762Z,91.13
2018-07-28T01:07:54.627Z,91.47
2018-07-28T01:09:03.493Z,91.08
2018-07-28T01:10:12.358Z,91.08
2018-07-28T01:11:21.224Z,91.18
2018-07-28T01:12:30.185Z,90.8
2018-07-28T01:13:39.050Z,91.18
2018-07-28T01:14:47.918Z,91.38
2018-07-28T01:15:57.057Z,91.28
2018-07-28T01:17:05.922Z,91.47
2018-07-28T01:18:14.936Z,91.28
2018-07-28T01:19:23.798Z,91.66
2018-07-28T01:20:32.662Z,91.66
2018-07-28T01:21:41.528Z,91.28
2018-07-28T01:22:50.394Z,91.18
2018-07-28T01:23:59.259Z,91.18
2018-07-28T01:25:08.124Z,91.38
2018-07-28T01:26:16.990Z,91.28
2018-07-28T01:27:25.852Z,90.8
2018-07-28T01:28:34.721Z,90.99
2018-07-28T01:29:43.685Z,91.47
2018-07-28T01:30:52.553Z,91.18
2018-07-28T01:32:01.414Z,92.05
2018-07-28T01:33:10.278Z,91.72
2018-07-28T01:34:19.420Z,92.05
2018-07-28T01:35:28.434Z,92.1
2018-07-28T01:36:37.582Z,91.72
2018-07-28T01:37:46.725Z,91.66
2018-07-28T01:38:55.588Z,91.91
2018-07-28T01:40:04.740Z,92
2018-07-28T01:41:13.607Z,92.58
2018-07-28T01:42:22.749Z,92.4
2018-07-28T01:43:31.613Z,92.68
2018-07-28T01:44:40.482Z,92.49
2018-07-28T01:45:49.337Z,92.49
2018-07-28T01:46:58.473Z,92.49
2018-07-28T01:48:07.895Z,92.49
2018-07-28T01:49:17.145Z,92.78
2018-07-28T01:50:26.011Z,92.4
2018-07-28T01:51:34.881Z,92.68
2018-07-28T01:52:44.021Z,92.78
2018-07-28T01:53:53.161Z,92.49
2018-07-28T01:55:02.042Z,92.4
2018-07-28T01:56:11.182Z,92.78
2018-07-28T01:57:20.047Z,91.82
2018-07-28T01:58:29.291Z,92.4
2018-07-28T01:59:38.179Z,92.88
2018-07-28T02:00:47.352Z,92.1
2018-07-28T02:01:56.213Z,92.97
2018-07-28T02:03:05.078Z,92.78
2018-07-28T02:04:14.568Z,92.78
2018-07-28T02:05:23.723Z,93.26
2018-07-28T02:06:32.587Z,92.3
2018-07-28T02:07:41.453Z,92.68
2018-07-28T02:08:50.588Z,93.36
2018-07-28T02:09:59.454Z,93.26
2018-07-28T02:11:08.873Z,92.74
2018-07-28T02:12:18.295Z,93.75
2018-07-28T02:13:27.437Z,93.22
2018-07-28T02:14:36.574Z,93.22
2018-07-28T02:15:45.443Z,93.32
2018-07-28T02:16:54.306Z,93.8
2018-07-28T02:18:03.171Z,93.8
2018-07-28T02:19:12.045Z,93.8
2018-07-28T02:20:20.904Z,93.9
2018-07-28T02:21:29.865Z,93.7
2018-07-28T02:22:38.731Z,93.9
2018-07-28T02:23:47.594Z,93.6
2018-07-28T02:24:56.737Z,94.09
2018-07-28T02:26:05.599Z,93.7
2018-07-28T02:27:14.613Z,94.86
2018-07-28T02:28:23.474Z,93.99
2018-07-28T02:29:32.340Z,94.62
2018-07-28T02:30:41.210Z,93.75
2018-07-28T02:31:50.080Z,94.57
2018-07-28T02:32:59.051Z,93.85
2018-07-28T02:34:07.914Z,93.9
2018-07-28T02:35:17.056Z,93.7
2018-07-28T02:36:26.196Z,93.7
2018-07-28T02:37:35.618Z,94.18
2018-07-28T02:38:44.760Z,93.66
2018-07-28T02:39:53.899Z,93.56
2018-07-28T02:41:02.763Z,94.24
2018-07-28T02:42:11.901Z,94.76
2018-07-28T02:43:21.330Z,94.14
2018-07-28T02:44:30.346Z,93.75
2018-07-28T02:45:39.491Z,93.85
2018-07-28T02:46:48.909Z,94.04
2018-07-28T02:47:57.773Z,93.95
2018-07-28T02:49:06.641Z,94.62
2018-07-28T02:50:15.947Z,94.24
2018-07-28T02:51:24.817Z,94.53
2018-07-28T02:52:33.957Z,94.33
2018-07-28T02:53:42.830Z,94.53
2018-07-28T02:54:51.970Z,95.2
2018-07-28T02:56:00.985Z,94.62
2018-07-28T02:57:09.849Z,94.62
2018-07-28T02:58:18.994Z,94.72
2018-07-28T02:59:28.134Z,94.72
2018-07-28T03:00:37.002Z,94.67
2018-07-28T03:01:45.867Z,94.82
2018-07-28T03:02:54.734Z,94.77
2018-07-28T03:04:03.873Z,95.15
2018-07-28T03:05:12.742Z,94.77
2018-07-28T03:06:21.882Z,94.38
2018-07-28T03:07:31.172Z,95.06
2018-07-28T03:08:40.324Z,94.67
2018-07-28T03:09:49.191Z,95.2
2018-07-28T03:10:58.061Z,95.06
2018-07-28T03:12:06.928Z,95.06
2018-07-28T03:13:16.144Z,94.96
2018-07-28T03:14:25.014Z,95.35
2018-07-28T03:15:33.880Z,95.15
2018-07-28T03:16:43.033Z,94.77
2018-07-28T03:17:51.898Z,94.77
2018-07-28T03:19:01.314Z,95.15
2018-07-28T03:20:10.735Z,94.91
2018-07-28T03:21:19.882Z,94.38
2018-07-28T03:22:29.028Z,94.96
2018-07-28T03:23:38.168Z,95.15
2018-07-28T03:24:47.425Z,95.15
2018-07-28T03:25:56.502Z,94.77
2018-07-28T03:27:05.367Z,94.96
2018-07-28T03:28:14.784Z,95.15
2018-07-28T03:29:23.930Z,95.06
2018-07-28T03:30:33.501Z,95.25
2018-07-28T03:31:42.925Z,94.57
2018-07-28T03:32:52.068Z,94.96
2018-07-28T03:34:00.939Z,94.96
2018-07-28T03:35:09.798Z,94.87
2018-07-28T03:36:19.011Z,94.87
2018-07-28T03:37:27.875Z,95.06
2018-07-28T03:38:36.738Z,95.93
2018-07-28T03:39:45.599Z,95.06
2018-07-28T03:40:54.737Z,94.96
2018-07-28T03:42:04.229Z,95.06
2018-07-28T03:43:13.093Z,94.96
2018-07-28T03:44:21.954Z,95.25
2018-07-28T03:45:31.092Z,95.15
2018-07-28T03:46:39.958Z,95.64
2018-07-28T03:47:49.250Z,95.25
2018-07-28T03:48:58.116Z,95.83
2018-07-28T03:50:06.982Z,95.83
2018-07-28T03:51:15.853Z,94.87
2018-07-28T03:52:24.716Z,95.64
2018-07-28T03:53:33.585Z,95.59
2018-07-28T03:54:42.721Z,95.78
2018-07-28T03:55:51.584Z,94.96
2018-07-28T03:57:00.450Z,95.68
2018-07-28T03:58:09.860Z,95.83
2018-07-28T03:59:18.723Z,95.3
2018-07-28T04:00:27.590Z,95.88
2018-07-28T04:01:36.737Z,95.4
2018-07-28T04:02:45.876Z,95.59
2018-07-28T04:03:54.738Z,95.45
2018-07-28T04:05:04.030Z,95.88
2018-07-28T04:06:12.892Z,95.15
2018-07-28T04:07:21.754Z,94.92
2018-07-28T04:08:30.616Z,95.15
2018-07-28T04:09:39.761Z,94.92
2018-07-28T04:10:48.981Z,94.92
2018-07-28T04:11:57.846Z,95.06
2018-07-28T04:13:06.711Z,94.92
2018-07-28T04:14:15.880Z,95.11
2018-07-28T04:15:24.714Z,95.11
2018-07-28T04:16:33.676Z,95.01
2018-07-28T04:17:42.540Z,94.92
2018-07-28T04:18:51.440Z,95.11
2018-07-28T04:20:00.302Z,94.92
2018-07-28T04:21:09.167Z,95.2
2018-07-28T04:22:18.029Z,95.15
2018-07-28T04:23:27.459Z,95.25
2018-07-28T04:24:36.601Z,95.68
2018-07-28T04:25:45.464Z,95.11
2018-07-28T04:26:54.329Z,95.15
2018-07-28T04:28:03.544Z,94.82
2018-07-28T04:29:12.407Z,94.82
2018-07-28T04:30:21.833Z,94.96
2018-07-28T04:31:30.698Z,94.96
2018-07-28T04:32:39.561Z,95.35
2018-07-28T04:33:48.429Z,94.96
2018-07-28T04:34:57.577Z,94.96
2018-07-28T04:36:07.003Z,95.54
2018-07-28T04:37:15.867Z,95.01
2018-07-28T04:38:24.733Z,95.35
2018-07-28T04:39:33.601Z,95.35
2018-07-28T04:40:42.464Z,95.15
2018-07-28T04:41:51.331Z,95.11
2018-07-28T04:43:00.190Z,94.82
2018-07-28T04:44:09.056Z,95.15
2018-07-28T04:45:17.919Z,94.67
2018-07-28T04:46:26.787Z,95.15
2018-07-28T04:47:35.651Z,95.35
2018-07-28T04:48:44.518Z,95.25
2018-07-28T04:49:53.383Z,94.87
2018-07-28T04:51:02.535Z,94.87
2018-07-28T04:52:11.674Z,94.77
2018-07-28T04:53:20.543Z,95.15
2018-07-28T04:54:29.403Z,95.15
2018-07-28T04:55:38.269Z,94.96
2018-07-28T04:56:47.287Z,94.57
2018-07-28T04:57:56.147Z,94.57
2018-07-28T04:59:05.286Z,95.15
2018-07-28T05:00:14.425Z,94.77
2018-07-28T05:01:23.292Z,94.96
2018-07-28T05:02:32.155Z,94.29
2018-07-28T05:03:41.295Z,94.87
2018-07-28T05:04:50.160Z,94.87
2018-07-28T05:05:59.304Z,94.29
2018-07-28T05:07:08.719Z,94.09
2018-07-28T05:08:17.874Z,93.8
2018-07-28T05:09:27.026Z,93.61
2018-07-28T05:10:35.893Z,94.04
2018-07-28T05:11:45.034Z,93.99
2018-07-28T05:12:53.896Z,93.8
2018-07-28T05:14:02.911Z,93.66
2018-07-28T05:15:12.053Z,93.66
2018-07-28T05:16:20.921Z,93.95
2018-07-28T05:17:30.057Z,94.04
2018-07-28T05:18:39.196Z,94.14
2018-07-28T05:19:48.209Z,93.56
2018-07-28T05:20:57.069Z,93.37
2018-07-28T05:22:06.219Z,94.14
2018-07-28T05:23:15.082Z,94.24
2018-07-28T05:24:24.227Z,94.04
2018-07-28T05:25:33.094Z,93.66
2018-07-28T05:26:41.961Z,93.85
2018-07-28T05:27:50.820Z,94.14
2018-07-28T05:28:59.683Z,93.95
2018-07-28T05:30:08.551Z,93.66
2018-07-28T05:31:17.567Z,94.14
2018-07-28T05:32:26.705Z,93.85
2018-07-28T05:33:35.578Z,93.46
2018-07-28T05:34:44.725Z,93.56
2018-07-28T05:35:53.589Z,93.85
2018-07-28T05:37:02.926Z,93.75
2018-07-28T05:38:12.410Z,94.04
2018-07-28T05:39:21.375Z,93.75
2018-07-28T05:40:30.240Z,93.95
2018-07-28T05:41:39.378Z,93.85
2018-07-28T05:42:48.243Z,93.7
2018-07-28T05:43:57.110Z,94.14
2018-07-28T05:45:06.257Z,93.66
2018-07-28T05:46:15.123Z,93.75
2018-07-28T05:47:23.989Z,93.37
2018-07-28T05:48:33.284Z,93.8
2018-07-28T05:49:42.148Z,93.32
2018-07-28T05:50:51.012Z,93.37
2018-07-28T05:51:59.874Z,93.8
2018-07-28T05:53:08.741Z,94.04
2018-07-28T05:54:17.881Z,94.28
2018-07-28T05:55:27.024Z,93.7
2018-07-28T05:56:35.888Z,93.51
2018-07-28T05:57:44.753Z,93.99
2018-07-28T05:58:53.892Z,93.27
2018-07-28T06:00:02.910Z,94.18
2018-07-28T06:01:11.774Z,93.9
2018-07-28T06:02:20.737Z,94.18
2018-07-28T06:03:29.917Z,94.28
2018-07-28T06:04:38.781Z,93.46
2018-07-28T06:05:47.794Z,93.7
2018-07-28T06:06:56.662Z,93.8
2018-07-28T06:08:05.522Z,94.28
2018-07-28T06:09:14.389Z,93.7
2018-07-28T06:10:23.527Z,93.6
2018-07-28T06:11:32.385Z,93.7
2018-07-28T06:12:41.250Z,93.12
2018-07-28T06:13:50.111Z,92.78
2018-07-28T06:14:58.973Z,92.44
2018-07-28T06:16:07.842Z,92.1
2018-07-28T06:17:17.260Z,92.1
2018-07-28T06:18:26.123Z,92.2
2018-07-28T06:19:34.987Z,92
2018-07-28T06:20:44.156Z,91.91
2018-07-28T06:21:53.049Z,92.1
2018-07-28T06:23:01.887Z,92
2018-07-28T06:24:11.036Z,92.05
2018-07-28T06:25:20.185Z,91.62
2018-07-28T06:26:29.925Z,91.86
2018-07-28T06:27:38.788Z,91.56
2018-07-28T06:28:47.804Z,92.34
2018-07-28T06:29:56.664Z,91.86
2018-07-28T06:31:05.532Z,90.7
2018-07-28T06:32:14.395Z,91.08
2018-07-28T06:33:23.259Z,91.28
2018-07-28T06:34:32.124Z,90.7
2018-07-28T06:35:40.992Z,90.6
2018-07-28T06:36:50.130Z,90.7
2018-07-28T06:37:59.006Z,90.89
2018-07-28T06:39:07.865Z,89.92
2018-07-28T06:40:16.735Z,89.73
2018-07-28T06:41:25.597Z,90.06
2018-07-28T06:42:35.018Z,90.16
2018-07-28T06:43:44.161Z,89.29
2018-07-28T06:44:53.025Z,89.48
2018-07-28T06:46:01.891Z,89.39
2018-07-28T06:47:10.791Z,88.9
2018-07-28T06:48:19.919Z,88.9
2018-07-28T06:49:28.783Z,89.23
2018-07-28T06:50:37.649Z,88.17
2018-07-28T06:51:46.670Z,88.56
2018-07-28T06:52:55.814Z,88.07
2018-07-28T06:54:05.059Z,87.78
2018-07-28T06:55:14.160Z,87.78
2018-07-28T06:56:23.839Z,88.02
2018-07-28T06:57:34.939Z,87.44
2018-07-28T06:58:44.217Z,87.78
2018-07-28T06:59:53.706Z,87.63
2018-07-28T07:01:03.040Z,86.66
2018-07-28T07:02:12.149Z,86.86
2018-07-28T07:03:21.189Z,86.57
2018-07-28T07:04:30.058Z,86.76
2018-07-28T07:05:38.925Z,86.51
2018-07-28T07:06:47.791Z,86.51
2018-07-28T07:07:56.662Z,86.8
2018-07-28T07:09:05.532Z,87.54
2018-07-28T07:10:14.399Z,86.71
2018-07-28T07:11:23.265Z,86.22
2018-07-28T07:12:32.406Z,86.02
2018-07-28T07:13:41.274Z,85.93
2018-07-28T07:14:50.286Z,87.09
2018-07-28T07:15:59.433Z,87.19
2018-07-28T07:17:08.301Z,86.41
2018-07-28T07:18:17.181Z,86.99
2018-07-28T07:19:26.049Z,86.71
2018-07-28T07:20:35.192Z,86.41
2018-07-28T07:21:44.059Z,86.41
2018-07-28T07:22:52.926Z,85.74
2018-07-28T07:24:01.795Z,86.41
2018-07-28T07:25:10.944Z,86.22
2018-07-28T07:26:19.809Z,85.93
2018-07-28T07:27:28.672Z,86.32
2018-07-28T07:28:37.823Z,85.74
2018-07-28T07:29:46.689Z,86.32
2018-07-28T07:30:55.556Z,86.22
2018-07-28T07:32:04.856Z,86.22
2018-07-28T07:33:13.722Z,86.61
2018-07-28T07:34:22.588Z,86.9
2018-07-28T07:35:31.461Z,86.51
2018-07-28T07:36:40.323Z,86.51
2018-07-28T07:37:49.193Z,87.29
2018-07-28T07:38:58.058Z,86.22
2018-07-28T07:40:07.207Z,86.41
2018-07-28T07:41:16.068Z,86.02
2018-07-28T07:42:25.383Z,86.12
2018-07-28T07:43:34.773Z,86.41
2018-07-28T07:44:43.915Z,86.99
2018-07-28T07:45:52.787Z,86.8
2018-07-28T07:47:01.932Z,87.09
2018-07-28T07:48:10.801Z,86.22
2018-07-28T07:49:20.043Z,86.51
2018-07-28T07:50:28.911Z,86.71
2018-07-28T07:51:37.774Z,86.61
2018-07-28T07:52:46.646Z,86.51
2018-07-28T07:53:55.542Z,86.41
2018-07-28T07:55:05.347Z,86.12
2018-07-28T07:56:14.212Z,86.32
2018-07-28T07:57:23.078Z,86.41
2018-07-28T07:58:31.943Z,85.25
2018-07-28T07:59:40.812Z,85.54
2018-07-28T08:00:49.835Z,85.44
2018-07-28T08:01:58.698Z,86.12
2018-07-28T08:03:07.840Z,85.74
2018-07-28T08:04:16.708Z,85.44
2018-07-28T08:05:25.577Z,85.58
2018-07-28T08:06:35.143Z,85.58
2018-07-28T08:07:44.211Z,86.07
2018-07-28T08:08:53.353Z,85.88
2018-07-28T08:10:02.496Z,86.36
2018-07-28T08:11:11.648Z,84.71
2018-07-28T08:12:20.517Z,84.61
2018-07-28T08:13:29.384Z,84.71
2018-07-28T08:14:38.251Z,84.03
2018-07-28T08:15:47.119Z,84.91
2018-07-28T08:16:56.260Z,85
2018-07-28T08:18:05.289Z,84.36
2018-07-28T08:19:14.154Z,84.42
2018-07-28T08:20:23.295Z,83.97
2018-07-28T08:21:32.173Z,84.12
2018-07-28T08:22:41.101Z,84.75
2018-07-28T08:23:50.245Z,84.75
2018-07-28T08:24:59.114Z,84.07
2018-07-28T08:26:07.985Z,84.75
2018-07-28T08:27:16.853Z,84.27
2018-07-28T08:28:26.193Z,84.36
2018-07-28T08:29:35.061Z,83.97
2018-07-28T08:30:43.928Z,84.17
2018-07-28T08:31:52.796Z,84.85
2018-07-28T08:33:01.668Z,84.17
2018-07-28T08:34:10.543Z,83.97
2018-07-28T08:35:19.417Z,83.78
2018-07-28T08:36:28.285Z,84.27
2018-07-28T08:37:37.151Z,84.17
2018-07-28T08:38:46.342Z,83.97
2018-07-28T08:39:55.518Z,83.63
2018-07-28T08:41:04.371Z,83.24
2018-07-28T08:42:13.550Z,83.34
2018-07-28T08:43:22.460Z,83.24
2018-07-28T08:44:31.325Z,82.89
2018-07-28T08:45:40.526Z,83.18
2018-07-28T08:46:49.671Z,82.79
2018-07-28T08:47:58.536Z,82.89
2018-07-28T08:49:08.642Z,82.5
2018-07-28T08:50:17.999Z,81.48
2018-07-28T08:51:26.886Z,81.04
2018-07-28T08:52:36.048Z,82.31
2018-07-28T08:53:44.916Z,82.06
2018-07-28T08:54:53.785Z,81.24
2018-07-28T08:56:02.654Z,82.11
2018-07-28T08:57:11.539Z,81.14
2018-07-28T08:58:20.691Z,82.02
2018-07-28T08:59:29.554Z,81.82
2018-07-28T09:00:38.574Z,81.92
2018-07-28T09:01:47.441Z,82.11
2018-07-28T09:02:56.308Z,82.4
2018-07-28T09:04:05.179Z,82.93
2018-07-28T09:05:14.047Z,80.56
2018-07-28T09:06:22.916Z,80.94
2018-07-28T09:07:31.801Z,80.76
2018-07-28T09:08:41.005Z,81.14
2018-07-28T09:09:49.880Z,80.76
2018-07-28T09:10:58.743Z,80.66
2018-07-28T09:12:08.038Z,80.5
2018-07-28T09:13:16.915Z,80.46
2018-07-28T09:14:25.808Z,80.89
2018-07-28T09:15:34.685Z,82.06
2018-07-28T09:16:43.553Z,80.79
2018-07-28T09:17:52.427Z,80.15
2018-07-28T09:19:01.693Z,80.15
2018-07-28T09:20:10.841Z,79.57
2018-07-28T09:21:19.721Z,78.69
2018-07-28T09:22:28.611Z,77.86
2018-07-28T09:23:37.998Z,78.34
2018-07-28T09:24:46.820Z,78.44
2018-07-28T09:25:55.961Z,78.25
2018-07-28T09:27:04.847Z,76.3
2018-07-28T09:28:13.742Z,77.56
2018-07-28T09:29:22.887Z,77.47
2018-07-28T09:30:32.111Z,77.47
2018-07-28T09:31:41.290Z,76.92
2018-07-28T09:32:50.172Z,76.14
2018-07-28T09:33:59.042Z,77.01
2018-07-28T09:35:08.264Z,74.97
2018-07-28T09:36:17.139Z,75.56
2018-07-28T09:37:26.011Z,74.91
2018-07-28T09:38:35.191Z,75.1
2018-07-28T09:39:44.338Z,74.52
2018-07-28T09:40:53.205Z,74.04
2018-07-28T09:42:02.377Z,74.04
2018-07-28T09:43:11.245Z,74.17
2018-07-28T09:44:20.113Z,75.04
2018-07-28T09:45:28.982Z,74.37
2018-07-28T09:46:38.287Z,73
2018-07-28T09:47:47.165Z,72.94
2018-07-28T09:48:56.043Z,72.71
2018-07-28T09:50:04.917Z,72.25
2018-07-28T09:51:13.788Z,71.37
2018-07-28T09:52:22.956Z,71.96
2018-07-28T09:53:31.829Z,71.96
2018-07-28T09:54:40.698Z,71.67
2018-07-28T09:55:49.565Z,72.19
2018-07-28T09:56:58.434Z,71.51
2018-07-28T09:58:07.588Z,71.12
2018-07-28T09:59:16.750Z,70.92
2018-07-28T10:00:25.626Z,70.18
2018-07-28T10:01:34.501Z,70.08
2018-07-28T10:02:43.937Z,70.96
2018-07-28T10:03:53.084Z,70.96
2018-07-28T10:05:02.111Z,70.86
2018-07-28T10:06:11.059Z,70.47
2018-07-28T10:07:20.235Z,70.18
2018-07-28T10:08:29.387Z,69.89
2018-07-28T10:09:38.411Z,69.3
2018-07-28T10:10:47.879Z,69.89
2018-07-28T10:11:57.048Z,70.34
2018-07-28T10:13:05.916Z,70.73
2018-07-28T10:14:14.859Z,70.53
2018-07-28T10:15:23.867Z,70.67
2018-07-28T10:16:33.147Z,69.85
2018-07-28T10:17:42.043Z,70.43
2018-07-28T10:18:50.943Z,69.17
2018-07-28T10:19:59.919Z,69.85
2018-07-28T10:21:08.887Z,69.65
2018-07-28T10:22:17.877Z,69.56
2018-07-28T10:23:26.813Z,69.56
2018-07-28T10:24:36.133Z,69.85
2018-07-28T10:25:45.029Z,69.65
2018-07-28T10:26:53.986Z,69.75
2018-07-28T10:28:02.879Z,70.43
2018-07-28T10:29:12.064Z,69.75
2018-07-28T10:30:21.038Z,70.24
2018-07-28T10:31:29.913Z,70.63
2018-07-28T10:32:39.737Z,70.63
2018-07-28T10:33:48.633Z,69.85
2018-07-28T10:34:57.590Z,70.24
2018-07-28T10:36:06.612Z,69.36
2018-07-28T10:37:17.190Z,70.24
2018-07-28T10:38:26.881Z,68.97
2018-07-28T10:39:35.898Z,69.36
2018-07-28T10:40:44.823Z,69.85
2018-07-28T10:41:53.803Z,69.65
2018-07-28T10:43:02.975Z,68.59
2018-07-28T10:44:11.966Z,68.29
2018-07-28T10:45:20.859Z,68
2018-07-28T10:46:29.793Z,66.83
2018-07-28T10:47:38.683Z,66.93
2018-07-28T10:48:47.589Z,68.59
2018-07-28T10:49:56.744Z,68.1
2018-07-28T10:51:05.679Z,68.87
2018-07-28T10:52:14.589Z,68.39
2018-07-28T10:53:23.514Z,67.22
2018-07-28T10:54:32.408Z,68.49
2018-07-28T10:55:41.971Z,68
2018-07-28T10:56:50.863Z,67.15
2018-07-28T10:58:00.053Z,66.8
2018-07-28T10:59:08.925Z,66.41
2018-07-28T11:00:17.866Z,66.5
2018-07-28T11:01:27.411Z,67.41
2018-07-28T11:02:36.300Z,66.73
2018-07-28T11:03:45.193Z,67.12
2018-07-28T11:04:54.123Z,66.34
2018-07-28T11:06:03.014Z,66.14
2018-07-28T11:07:12.067Z,67.02
2018-07-28T11:08:20.935Z,65.07
2018-07-28T11:09:29.867Z,65.85
2018-07-28T11:10:38.754Z,65.26
2018-07-28T11:11:47.951Z,65.59
2018-07-28T11:12:56.827Z,65.26
2018-07-28T11:14:05.762Z,64.03
2018-07-28T11:15:14.911Z,63.93
2018-07-28T11:16:23.828Z,65
2018-07-28T11:17:32.718Z,65.78
2018-07-28T11:18:41.677Z,64.03
2018-07-28T11:19:51.082Z,63.24
2018-07-28T11:20:59.988Z,62.16
2018-07-28T11:22:08.863Z,62.16
2018-07-28T11:23:17.788Z,61.38
2018-07-28T11:24:26.730Z,61.77
2018-07-28T11:25:35.917Z,61.41
2018-07-28T11:26:44.791Z,61.71
2018-07-28T11:27:53.709Z,60.83
2018-07-28T11:29:02.860Z,59.88
2018-07-28T11:30:11.923Z,60.76
2018-07-28T11:31:20.800Z,59.69
2018-07-28T11:32:29.717Z,59.22
2018-07-28T11:33:39.204Z,58.73
2018-07-28T11:34:48.115Z,58.25
2018-07-28T11:35:57.387Z,58.64
2018-07-28T11:37:06.330Z,58.86
2018-07-28T11:38:15.800Z,58.57
2018-07-28T11:39:24.698Z,57.86
2018-07-28T11:40:33.642Z,57.95
2018-07-28T11:41:42.866Z,58.34
2018-07-28T11:42:51.796Z,58.73
2018-07-28T11:44:00.704Z,58.9
2018-07-28T11:45:09.654Z,59.98
2018-07-28T11:46:18.613Z,60.27
2018-07-28T11:47:27.783Z,59.69
2018-07-28T11:48:36.749Z,59.29
2018-07-28T11:49:45.702Z,59.59
2018-07-28T11:50:54.660Z,59.39
2018-07-28T11:52:03.594Z,59.59
2018-07-28T11:53:12.783Z,59.69
2018-07-28T11:54:21.719Z,60.57
2018-07-28T11:55:30.908Z,61.12
2018-07-28T11:56:40.132Z,61.32
2018-07-28T11:57:49.325Z,61.87
2018-07-28T11:58:58.440Z,62.16
2018-07-28T12:00:07.641Z,62.76
2018-07-28T12:01:16.558Z,63.51
2018-07-28T12:02:25.441Z,64.36
2018-07-28T12:03:34.712Z,64.45
2018-07-28T12:04:43.614Z,64.65
2018-07-28T12:05:52.861Z,64.84
2018-07-28T12:07:01.818Z,66.8
2018-07-28T12:08:10.824Z,68.68
2018-07-28T12:09:19.770Z,71.18
2018-07-28T12:10:28.700Z,74.43
2018-07-28T12:11:37.613Z,88.21
2018-07-28T12:12:46.889Z,90.91
2018-07-28T12:13:55.788Z,53.97
2018-07-28T12:15:04.707Z,54.71
2018-07-28T12:16:13.615Z,0
2018-07-28T12:17:22.629Z,0
2018-07-28T12:18:31.887Z,0
2018-07-28T12:19:41.197Z,0
2018-07-28T12:20:50.515Z,0
2018-07-28T12:21:59.410Z,0
2018-07-28T12:23:08.440Z,0
2018-07-28T12:24:17.317Z,0
2018-07-28T12:25:26.336Z,0
2018-07-28T12:26:35.235Z,0
2018-07-28T12:27:44.179Z,0
2018-07-28T12:28:53.345Z,0
2018-07-28T12:30:02.266Z,0
2018-07-28T12:31:11.150Z,0
2018-07-28T12:32:20.045Z,0
2018-07-28T12:33:29.084Z,0
2018-07-28T12:34:38.064Z,0
2018-07-28T12:35:47.436Z,0
2018-07-28T12:36:56.340Z,0
2018-07-28T12:38:05.491Z,0
2018-07-28T12:39:14.769Z,0
2018-07-28T12:40:23.657Z,0
2018-07-28T12:41:32.828Z,0
2018-07-28T12:42:41.699Z,0
2018-07-28T12:43:50.625Z,0
2018-07-28T12:44:59.657Z,0
2018-07-28T12:46:08.562Z,0
2018-07-28T12:47:17.427Z,0
2018-07-28T12:48:26.341Z,0
2018-07-28T12:49:35.270Z,0
2018-07-28T12:50:44.219Z,0
2018-07-28T12:51:53.123Z,0
2018-07-28T12:53:02.327Z,0
2018-07-28T12:54:11.524Z,0
2018-07-28T12:55:20.481Z,0
2018-07-28T12:56:30.294Z,0
2018-07-28T12:57:39.211Z,0
2018-07-28T12:58:48.420Z,0
2018-07-28T12:59:57.335Z,0
2018-07-28T13:01:06.326Z,0
2018-07-28T13:02:15.498Z,0
2018-07-28T13:03:24.433Z,0
2018-07-28T13:04:33.354Z,0
2018-07-28T13:05:42.290Z,0
2018-07-28T13:06:51.210Z,26.42
2018-07-28T13:08:00.094Z,15.59
2018-07-28T13:09:09.050Z,37.09
2018-07-28T13:10:17.966Z,41.25
2018-07-28T13:11:26.938Z,33.22
2018-07-28T13:12:36.143Z,57.71
2018-07-28T13:13:45.415Z,55.04
2018-07-28T13:14:54.380Z,63.69
2018-07-28T13:16:03.363Z,69.21
2018-07-28T13:17:12.415Z,65.14
2018-07-28T13:18:21.779Z,71.73
2018-07-28T13:19:30.871Z,73.42
2018-07-28T13:20:39.815Z,69.15
2018-07-28T13:21:48.809Z,74.49
2018-07-28T13:22:57.686Z,69.86
2018-07-28T13:24:06.651Z,63.65
2018-07-28T13:25:15.650Z,78.07
2018-07-28T13:26:24.593Z,72.45
2018-07-28T13:27:33.509Z,80.4
2018-07-28T13:28:42.509Z,75.16
2018-07-28T13:29:51.445Z,70.51
2018-07-28T13:31:01.125Z,73.32
2018-07-28T13:32:10.000Z,80.01
2018-07-28T13:33:19.230Z,81.37
2018-07-28T13:34:28.120Z,80.79
2018-07-28T13:35:37.035Z,83.17
2018-07-28T13:36:46.201Z,82.5
2018-07-28T13:37:55.140Z,79.88
2018-07-28T13:39:04.008Z,82.55
2018-07-28T13:40:12.934Z,81.43
2018-07-28T13:41:21.845Z,76.45
2018-07-28T13:42:31.388Z,71.73
2018-07-28T13:43:40.277Z,71.8
2018-07-28T13:44:49.517Z,47.96
2018-07-28T13:45:58.414Z,61.94
2018-07-28T13:47:07.606Z,41.78
2018-07-28T13:48:17.430Z,56.23
2018-07-28T13:49:26.322Z,66.89
2018-07-28T13:50:35.256Z,48.95
2018-07-28T13:51:44.153Z,52.34
2018-07-28T13:52:53.089Z,65.34
2018-07-28T13:54:02.064Z,64.27
2018-07-28T13:55:10.930Z,59.61
2018-07-28T13:56:19.798Z,72.31
2018-07-28T13:57:28.665Z,75.87
2018-07-28T13:58:37.533Z,48.95
2018-07-28T13:59:46.398Z,62.43
2018-07-28T14:00:55.265Z,47.11
2018-07-28T14:02:04.155Z,58.94
2018-07-28T14:03:13.277Z,71.83
2018-07-28T14:04:22.473Z,55.32
2018-07-28T14:05:31.498Z,42.26
2018-07-28T14:06:40.639Z,63.01
2018-07-28T14:07:49.783Z,67.27
2018-07-28T14:08:58.649Z,76.87
2018-07-28T14:10:07.514Z,63.59
2018-07-28T14:11:16.385Z,50.89
2018-07-28T14:12:25.249Z,60.78
2018-07-28T14:13:34.112Z,39.74
2018-07-28T14:14:42.981Z,76.19
2018-07-28T14:15:52.149Z,69.31
2018-07-28T14:17:01.442Z,68.15
2018-07-28T14:18:10.383Z,72.31
2018-07-28T14:19:19.907Z,77.75
2018-07-28T14:20:28.781Z,79.1
2018-07-28T14:21:37.923Z,61.75
2018-07-28T14:22:47.070Z,58.94
2018-07-28T14:23:55.934Z,72.8
2018-07-28T14:25:04.829Z,72.71
2018-07-28T14:26:13.669Z,78.42
2018-07-28T14:27:22.864Z,83.31
2018-07-28T14:28:31.679Z,61.94
2018-07-28T14:29:40.824Z,81.82
2018-07-28T14:30:49.690Z,83.56
2018-07-28T14:31:59.109Z,69.54
2018-07-28T14:33:08.251Z,83.99
2018-07-28T14:34:17.217Z,83.12
2018-07-28T14:35:26.089Z,59.55
2018-07-28T14:36:34.956Z,84.09
2018-07-28T14:37:43.824Z,59.64
2018-07-28T14:38:52.693Z,61.68
2018-07-28T14:40:01.913Z,64.69
2018-07-28T14:41:11.056Z,84.22
2018-07-28T14:42:19.923Z,59.58
2018-07-28T14:43:28.790Z,67.24
2018-07-28T14:44:38.211Z,81.7
2018-07-28T14:45:47.080Z,78.64
2018-07-28T14:46:55.943Z,71.7
2018-07-28T14:48:05.095Z,75.82
2018-07-28T14:49:13.962Z,82.52
2018-07-28T14:50:23.117Z,79.61
2018-07-28T14:51:31.984Z,84.27
2018-07-28T14:52:41.125Z,86.01
2018-07-28T14:53:49.994Z,75.72
2018-07-28T14:54:58.863Z,72.13
2018-07-28T14:56:08.325Z,86.99
2018-07-28T14:57:17.544Z,70.77
2018-07-28T14:58:26.410Z,82.23